createdAt,value
2023-03-16T00:02:05.737Z,97.40
2023-03-16T00:04:37.235Z,97.60
2023-03-16T00:07:09.067Z,97.90
2023-03-16T00:09:40.742Z,98.40
2023-03-16T00:12:16.383Z,98.50
2023-03-16T00:14:48.210Z,98.80
2023-03-16T00:17:20.880Z,98.90
2023-03-16T00:19:55.188Z,98.90
2023-03-16T00:22:27.378Z,99.10
2023-03-16T00:24:54.752Z,99.00
2023-03-16T00:27:23.936Z,98.80
2023-03-16T00:29:56.005Z,98.70
2023-03-16T00:32:27.263Z,99.30
2023-03-16T00:34:54.518Z,98.10
2023-03-16T00:37:23.512Z,97.80
2023-03-16T00:39:51.631Z,97.20
2023-03-16T00:42:20.072Z,96.20
2023-03-16T00:44:47.096Z,95.10
2023-03-16T00:47:14.496Z,94.50
2023-03-16T00:49:43.326Z,94.30
2023-03-16T00:52:16.049Z,94.10
2023-03-16T00:54:44.719Z,94.50
2023-03-16T00:59:39.928Z,94.10
2023-03-16T01:02:08.266Z,94.60
2023-03-16T01:04:36.429Z,94.60
2023-03-16T01:07:04.841Z,94.20
2023-03-16T01:09:36.818Z,94.00
2023-03-16T01:12:13.383Z,94.00
2023-03-16T01:14:40.473Z,93.90
2023-03-16T01:17:10.833Z,93.90
2023-03-16T01:19:37.896Z,93.70
2023-03-16T01:22:09.893Z,93.70
2023-03-16T01:24:37.553Z,93.80
2023-03-16T01:27:05.524Z,93.90
2023-03-16T01:29:33.091Z,94.20
2023-03-16T01:32:00.709Z,94.70
2023-03-16T01:41:49.433Z,96.90
2023-03-16T01:44:22.319Z,97.30
2023-03-16T01:46:49.173Z,97.90
2023-03-16T01:49:37.416Z,98.40
2023-03-16T01:52:12.575Z,98.50
2023-03-16T01:54:52.675Z,98.70
2023-03-16T01:57:25.900Z,99.00
2023-03-16T01:59:55.646Z,99.10
2023-03-16T02:02:27.110Z,99.30
2023-03-16T02:05:13.932Z,99.60
2023-03-16T02:07:44.513Z,99.80
2023-03-16T02:10:14.014Z,99.90
2023-03-16T02:12:40.776Z,99.90
2023-03-16T02:15:08.050Z,99.90
2023-03-16T02:17:35.880Z,99.90
2023-03-16T02:20:14.459Z,99.90
2023-03-16T02:22:47.540Z,99.90
2023-03-16T02:25:17.207Z,99.90
2023-03-16T02:28:04.273Z,99.90
2023-03-16T02:35:25.747Z,99.90
2023-03-16T02:37:52.672Z,99.90
2023-03-16T02:40:27.759Z,99.90
2023-03-16T02:43:02.868Z,99.90
2023-03-16T02:45:36.798Z,99.90
2023-03-16T02:48:09.649Z,99.90
2023-03-16T02:53:03.719Z,99.90
2023-03-16T03:00:24.755Z,99.90
2023-03-16T03:07:47.471Z,99.90
2023-03-16T03:10:14.208Z,99.90
2023-03-16T03:15:08.839Z,99.90
2023-03-16T03:20:13.559Z,99.90
2023-03-16T03:22:40.607Z,99.90
2023-03-16T03:25:08.817Z,99.90
2023-03-16T03:27:35.981Z,99.90
2023-03-16T03:30:03.206Z,99.90
2023-03-16T03:32:30.155Z,99.90
2023-03-16T03:34:57.094Z,99.90
2023-03-16T03:42:20.171Z,99.90
2023-03-16T03:44:46.861Z,99.90
2023-03-16T03:49:40.955Z,99.90
2023-03-16T03:52:07.844Z,99.90
2023-03-16T03:54:34.910Z,99.90
2023-03-16T03:57:01.752Z,99.90
2023-03-16T04:06:51.180Z,99.90
2023-03-16T04:09:18.053Z,99.90
2023-03-16T04:11:44.813Z,99.90
2023-03-16T04:19:05.786Z,99.90
2023-03-16T04:26:26.862Z,99.90
2023-03-16T04:41:11.374Z,99.90
2023-03-16T04:48:33.314Z,99.90
2023-03-16T05:00:52.118Z,99.90
2023-03-16T05:03:19.452Z,99.90
2023-03-16T05:05:47.314Z,99.90
2023-03-16T05:13:08.471Z,99.90
2023-03-16T05:18:02.289Z,99.90
2023-03-16T05:20:29.234Z,99.90
2023-03-16T05:22:56.038Z,99.90
2023-03-16T05:25:22.775Z,99.90
2023-03-16T05:27:51.922Z,99.90
2023-03-16T05:30:19.142Z,99.90
2023-03-16T05:35:13.849Z,99.90
2023-03-16T05:37:42.279Z,98.40
2023-03-16T05:40:14.303Z,95.80
2023-03-16T05:42:41.092Z,94.50
2023-03-16T05:45:08.473Z,93.70
2023-03-16T05:47:37.211Z,93.00
2023-03-16T05:50:05.474Z,92.50
2023-03-16T05:52:33.853Z,92.40
2023-03-16T05:55:00.728Z,92.30
2023-03-16T05:59:54.606Z,92.00
2023-03-16T06:02:21.364Z,92.00
2023-03-16T06:12:10.237Z,92.00
2023-03-16T06:14:37.216Z,92.00
2023-03-16T06:24:25.830Z,92.10
2023-03-16T06:26:52.535Z,92.40
2023-03-16T06:46:33.016Z,91.90
2023-03-16T06:49:00.948Z,91.70
2023-03-16T06:51:28.228Z,91.60
2023-03-16T06:53:54.917Z,91.30
2023-03-16T06:58:48.842Z,89.10
2023-03-16T07:03:43.025Z,88.50
2023-03-16T07:06:09.881Z,89.30
2023-03-16T07:08:36.616Z,89.90
2023-03-16T07:15:57.949Z,89.40
2023-03-16T07:20:54.312Z,89.40
2023-03-16T07:23:21.592Z,88.90
2023-03-16T07:25:48.348Z,88.60
2023-03-16T07:28:15.151Z,87.90
2023-03-16T07:30:53.223Z,87.80
2023-03-16T07:38:21.871Z,87.40
2023-03-16T07:40:48.713Z,86.70
2023-03-16T07:50:37.149Z,87.60
2023-03-16T07:53:05.554Z,87.20
2023-03-16T08:00:27.037Z,87.40
2023-03-16T08:10:18.715Z,87.10
2023-03-16T08:12:45.609Z,87.20
2023-03-16T08:15:12.368Z,86.90
2023-03-16T08:20:13.848Z,86.40
2023-03-16T08:22:41.898Z,86.00
2023-03-16T08:25:10.738Z,86.00
2023-03-16T08:27:38.187Z,85.90
2023-03-16T08:30:07.450Z,85.80
2023-03-16T08:32:34.433Z,85.70
2023-03-16T08:37:29.030Z,85.70
2023-03-16T08:39:55.761Z,85.90
2023-03-16T08:44:50.892Z,85.20
2023-03-16T08:47:17.975Z,84.70
2023-03-16T08:49:44.806Z,84.70
2023-03-16T08:52:12.948Z,84.90
2023-03-16T08:54:45.038Z,84.40
2023-03-16T08:59:46.711Z,84.00
2023-03-16T09:02:14.827Z,83.70
2023-03-16T09:04:41.605Z,82.90
2023-03-16T09:07:09.773Z,83.60
2023-03-16T09:09:39.525Z,83.70
2023-03-16T09:12:06.839Z,83.70
2023-03-16T09:14:33.993Z,83.70
2023-03-16T09:17:00.727Z,83.50
2023-03-16T09:19:30.701Z,83.70
2023-03-16T09:24:29.496Z,83.20
2023-03-16T09:29:24.534Z,82.00
2023-03-16T09:34:18.983Z,81.60
2023-03-16T09:36:45.810Z,81.20
2023-03-16T09:39:13.361Z,80.40
2023-03-16T09:42:02.458Z,80.20
2023-03-16T09:44:32.287Z,80.50
2023-03-16T09:47:01.619Z,80.10
2023-03-16T09:49:36.271Z,80.00
2023-03-16T09:52:20.579Z,80.10
2023-03-16T09:57:30.455Z,81.00
2023-03-16T10:00:03.162Z,80.40
2023-03-16T10:02:40.551Z,78.30
2023-03-16T10:05:14.109Z,77.80
2023-03-16T10:07:55.930Z,78.50
2023-03-16T10:10:55.113Z,77.70
2023-03-16T10:13:42.507Z,77.60
2023-03-16T10:16:15.756Z,77.80
2023-03-16T10:18:46.005Z,78.50
2023-03-16T10:21:16.904Z,78.60
2023-03-16T10:23:45.204Z,78.80
2023-03-16T10:26:24.574Z,79.20
2023-03-16T10:31:23.607Z,78.70
2023-03-16T10:33:56.503Z,78.90
2023-03-16T10:36:33.516Z,78.80
2023-03-16T10:41:45.374Z,78.60
2023-03-16T10:44:30.735Z,78.50
2023-03-16T10:47:04.869Z,78.50
2023-03-16T10:49:41.961Z,78.20
2023-03-16T10:52:24.972Z,78.60
2023-03-16T10:54:59.239Z,79.50
2023-03-16T10:57:27.264Z,78.60
2023-03-16T10:59:57.588Z,78.80
2023-03-16T11:02:31.856Z,78.80
2023-03-16T11:04:58.974Z,78.50
2023-03-16T11:09:56.504Z,78.90
2023-03-16T11:12:30.195Z,78.20
2023-03-16T11:15:25.200Z,77.60
2023-03-16T11:17:56.930Z,78.00
2023-03-16T11:20:28.785Z,77.50
2023-03-16T11:25:31.426Z,77.40
2023-03-16T11:28:13.006Z,77.10
2023-03-16T11:31:20.048Z,76.90
2023-03-16T11:33:49.087Z,76.90
2023-03-16T11:36:39.740Z,77.00
2023-03-16T11:39:40.495Z,77.10
2023-03-16T11:42:39.576Z,76.40
2023-03-16T11:45:10.058Z,76.50
2023-03-16T11:47:58.576Z,76.50
2023-03-16T11:50:45.830Z,76.40
2023-03-16T11:53:27.166Z,76.40
2023-03-16T11:56:08.029Z,77.00
2023-03-16T11:58:56.826Z,76.70
2023-03-16T12:01:54.363Z,77.40
2023-03-16T12:04:36.947Z,77.30
2023-03-16T12:07:09.209Z,77.20
2023-03-16T12:10:09.132Z,76.80
2023-03-16T12:13:14.536Z,77.30
2023-03-16T12:15:54.457Z,77.90
2023-03-16T12:18:30.335Z,77.40
2023-03-16T12:21:04.164Z,77.60
2023-03-16T12:23:36.634Z,77.50
2023-03-16T12:26:04.054Z,77.70
2023-03-16T12:28:36.113Z,77.60
2023-03-16T12:31:20.316Z,78.50
2023-03-16T12:34:09.218Z,76.70
2023-03-16T12:36:54.995Z,76.70
2023-03-16T12:39:51.593Z,77.30
2023-03-16T12:44:48.257Z,76.80
2023-03-16T12:47:42.950Z,76.80
2023-03-16T12:50:19.804Z,76.20
2023-03-16T12:52:49.581Z,76.60
2023-03-16T12:55:25.135Z,75.70
2023-03-16T12:58:00.321Z,75.90
2023-03-16T13:00:40.657Z,74.90
2023-03-16T13:03:15.621Z,74.50
2023-03-16T13:05:55.627Z,74.70
2023-03-16T13:08:24.032Z,74.70
2023-03-16T13:11:06.341Z,75.10
2023-03-16T13:13:34.235Z,75.50
2023-03-16T13:16:10.166Z,75.10
2023-03-16T13:18:41.810Z,74.30
2023-03-16T13:21:21.537Z,74.90
2023-03-16T13:24:00.126Z,76.00
2023-03-16T13:26:38.547Z,75.00
2023-03-16T13:29:21.768Z,75.10
2023-03-16T13:31:49.413Z,74.90
2023-03-16T13:34:31.045Z,76.00
2023-03-16T13:36:59.843Z,74.70
2023-03-16T13:39:29.178Z,74.50
2023-03-16T13:41:59.880Z,74.40
2023-03-16T13:44:28.591Z,73.50
2023-03-16T13:46:55.432Z,72.80
2023-03-16T13:49:22.478Z,72.40
2023-03-16T13:51:49.502Z,72.60
2023-03-16T13:54:23.511Z,72.50
2023-03-16T13:56:58.569Z,73.00
2023-03-16T13:59:26.338Z,72.50
2023-03-16T14:02:03.698Z,72.60
2023-03-16T14:04:32.789Z,72.80
2023-03-16T14:07:03.747Z,72.90
2023-03-16T14:09:34.520Z,73.60
2023-03-16T14:12:02.372Z,73.90
2023-03-16T14:14:30.737Z,73.30
2023-03-16T14:17:11.333Z,72.60
2023-03-16T14:19:57.342Z,72.30
2023-03-16T14:22:31.047Z,72.50
2023-03-16T14:25:00.955Z,72.30
2023-03-16T14:27:45.385Z,72.00
2023-03-16T14:30:19.465Z,72.70
2023-03-16T14:32:58.518Z,71.70
2023-03-16T14:35:42.959Z,71.70
2023-03-16T14:38:22.668Z,72.70
2023-03-16T14:40:57.944Z,73.60
2023-03-16T14:43:30.779Z,74.70
2023-03-16T14:45:57.844Z,75.50
2023-03-16T14:48:25.198Z,75.90
2023-03-16T14:50:56.241Z,76.30
2023-03-16T14:53:24.676Z,76.70
2023-03-16T14:55:52.112Z,75.50
2023-03-16T14:58:18.796Z,76.30
2023-03-16T15:00:52.581Z,76.80
2023-03-16T15:03:33.142Z,76.40
2023-03-16T15:06:02.161Z,77.60
2023-03-16T15:08:32.842Z,78.60
2023-03-16T15:11:05.791Z,77.80
2023-03-16T15:13:42.073Z,77.60
2023-03-16T15:16:14.128Z,78.10
2023-03-16T15:18:41.948Z,76.90
2023-03-16T15:21:31.545Z,77.10
2023-03-16T15:24:01.414Z,76.80
2023-03-16T15:26:29.641Z,76.90
2023-03-16T15:28:57.387Z,76.60
2023-03-16T15:31:24.330Z,76.70
2023-03-16T15:33:51.477Z,75.60
2023-03-16T15:36:20.434Z,75.10
2023-03-16T15:38:49.800Z,76.30
2023-03-16T15:43:45.980Z,76.60
2023-03-16T15:46:13.368Z,76.60
2023-03-16T15:48:40.514Z,75.60
2023-03-16T15:51:16.131Z,75.40
2023-03-16T15:53:47.950Z,75.70
2023-03-16T15:56:17.537Z,76.10
2023-03-16T15:58:46.765Z,75.60
2023-03-16T16:01:25.903Z,74.80
2023-03-16T16:03:54.303Z,73.80
2023-03-16T16:06:21.804Z,75.10
2023-03-16T16:08:48.812Z,74.70
2023-03-16T16:11:28.213Z,74.50
2023-03-16T16:13:56.769Z,75.60
2023-03-16T16:16:26.116Z,75.20
2023-03-16T16:18:52.846Z,74.90
2023-03-16T16:21:24.495Z,74.60
2023-03-16T16:23:52.144Z,74.70
2023-03-16T16:26:34.317Z,74.70
2023-03-16T16:29:18.935Z,73.40
2023-03-16T16:31:46.119Z,74.40
2023-03-16T16:34:15.678Z,74.20
2023-03-16T16:39:09.719Z,74.30
2023-03-16T16:41:37.494Z,74.70
2023-03-16T16:44:08.291Z,75.20
2023-03-16T16:46:40.629Z,74.90
2023-03-16T16:49:17.728Z,75.50
2023-03-16T16:51:44.663Z,75.40
2023-03-16T16:54:21.224Z,75.20
2023-03-16T16:56:50.163Z,76.10
2023-03-16T16:59:36.887Z,76.20
2023-03-16T17:02:21.135Z,75.80
2023-03-16T17:04:50.658Z,76.30
2023-03-16T17:07:17.562Z,76.30
2023-03-16T17:09:44.689Z,76.70
2023-03-16T17:12:21.327Z,76.80
2023-03-16T17:14:49.625Z,77.00
2023-03-16T17:17:17.864Z,76.90
2023-03-16T17:19:46.582Z,77.20
2023-03-16T17:22:22.896Z,77.60
2023-03-16T17:24:49.634Z,77.80
2023-03-16T17:27:20.278Z,78.00
2023-03-16T17:29:47.545Z,78.00
2023-03-16T17:32:23.660Z,78.00
2023-03-16T17:34:51.271Z,78.10
2023-03-16T17:37:22.518Z,78.60
2023-03-16T17:39:49.665Z,78.80
2023-03-16T17:42:18.754Z,78.90
2023-03-16T17:44:48.665Z,79.50
2023-03-16T17:47:18.860Z,79.70
2023-03-16T17:49:48.627Z,80.10
2023-03-16T17:52:18.639Z,80.50
2023-03-16T17:54:47.743Z,80.60
2023-03-16T17:57:22.169Z,80.90
2023-03-16T17:59:48.893Z,80.80
2023-03-16T18:02:54.084Z,80.90
2023-03-16T18:05:27.213Z,81.20
2023-03-16T18:07:56.057Z,81.40
2023-03-16T18:10:29.097Z,81.60
2023-03-16T18:13:06.657Z,81.60
2023-03-16T18:15:36.559Z,81.70
2023-03-16T18:18:07.170Z,82.10
2023-03-16T18:20:36.629Z,82.30
2023-03-16T18:23:20.958Z,82.30
2023-03-16T18:25:50.001Z,82.70
2023-03-16T18:28:18.112Z,82.80
2023-03-16T18:30:48.011Z,83.10
2023-03-16T18:33:25.764Z,83.10
2023-03-16T18:35:54.148Z,83.40
2023-03-16T18:38:34.628Z,83.50
2023-03-16T18:41:13.272Z,83.70
2023-03-16T18:43:40.349Z,83.80
2023-03-16T18:46:27.949Z,84.00
2023-03-16T18:49:12.942Z,84.00
2023-03-16T18:51:40.356Z,84.00
2023-03-16T18:54:31.417Z,84.10
2023-03-16T18:56:58.956Z,84.20
2023-03-16T18:59:26.265Z,84.10
2023-03-16T19:01:54.153Z,84.20
2023-03-16T19:04:29.426Z,84.20
2023-03-16T19:06:57.328Z,84.20
2023-03-16T19:09:29.575Z,84.40
2023-03-16T19:11:57.567Z,84.50
2023-03-16T19:14:28.211Z,84.60
2023-03-16T19:16:56.094Z,84.70
2023-03-16T19:19:24.258Z,84.80
2023-03-16T19:22:18.619Z,85.00
2023-03-16T19:24:52.631Z,85.30
2023-03-16T19:27:30.803Z,85.30
2023-03-16T19:29:57.810Z,85.40
2023-03-16T19:32:24.716Z,85.50
2023-03-16T19:34:51.717Z,85.70
2023-03-16T19:37:19.762Z,85.70
2023-03-16T19:39:46.804Z,85.60
2023-03-16T19:42:36.297Z,85.70
2023-03-16T19:45:04.508Z,86.00
2023-03-16T19:47:34.676Z,86.10
2023-03-16T19:50:01.879Z,86.50
2023-03-16T19:52:31.230Z,86.40
2023-03-16T19:54:58.052Z,86.70
2023-03-16T19:57:25.304Z,86.70
2023-03-16T19:59:57.446Z,86.80
2023-03-16T20:02:35.455Z,87.00
2023-03-16T20:05:02.202Z,86.90
2023-03-16T20:07:29.203Z,87.00
2023-03-16T20:09:57.335Z,87.10
2023-03-16T20:14:57.492Z,87.20
2023-03-16T20:17:29.663Z,87.20
2023-03-16T20:19:57.355Z,87.40
2023-03-16T20:22:26.153Z,87.50
2023-03-16T20:24:54.403Z,87.50
2023-03-16T20:27:23.090Z,87.50
2023-03-16T20:29:50.707Z,87.50
2023-03-16T20:32:21.118Z,87.60
2023-03-16T20:34:50.308Z,87.90
2023-03-16T20:37:28.588Z,87.90
2023-03-16T20:39:57.688Z,88.10
2023-03-16T20:42:31.545Z,88.20
2023-03-16T20:44:58.890Z,87.90
2023-03-16T20:47:26.701Z,88.00
2023-03-16T20:49:55.683Z,88.20
2023-03-16T20:52:30.614Z,88.10
2023-03-16T20:54:57.984Z,88.10
2023-03-16T20:57:27.082Z,88.10
2023-03-16T20:59:55.488Z,88.20
2023-03-16T21:02:29.475Z,88.20
2023-03-16T21:04:58.001Z,88.10
2023-03-16T21:07:24.990Z,88.10
2023-03-16T21:09:52.859Z,88.00
2023-03-16T21:12:33.546Z,88.20
2023-03-16T21:15:07.277Z,88.10
2023-03-16T21:17:38.991Z,88.00
2023-03-16T21:20:20.554Z,87.90
2023-03-16T21:22:47.449Z,88.00
2023-03-16T21:25:27.940Z,88.10
2023-03-16T21:28:03.548Z,87.90
2023-03-16T21:30:47.542Z,87.90
2023-03-16T21:33:33.231Z,87.90
2023-03-16T21:36:01.664Z,88.00
2023-03-16T21:38:30.308Z,88.00
2023-03-16T21:40:57.680Z,87.90
2023-03-16T21:43:24.665Z,88.00
2023-03-16T21:45:51.989Z,88.00
2023-03-16T21:48:20.581Z,88.20
2023-03-16T21:50:51.166Z,88.40
2023-03-16T21:53:30.940Z,88.50
2023-03-16T21:55:58.908Z,88.70
2023-03-16T21:58:26.049Z,88.80
2023-03-16T22:00:54.639Z,88.80
2023-03-16T22:03:29.553Z,88.80
2023-03-16T22:06:00.403Z,88.90
2023-03-16T22:08:30.668Z,89.00
2023-03-16T22:10:57.798Z,88.90
2023-03-16T22:13:26.451Z,88.90
2023-03-16T22:15:56.333Z,89.10
2023-03-16T22:18:33.413Z,89.20
2023-03-16T22:21:02.097Z,89.20
2023-03-16T22:23:30.848Z,89.20
2023-03-16T22:25:58.371Z,89.30
2023-03-16T22:28:26.399Z,89.30
2023-03-16T22:30:54.558Z,89.30
2023-03-16T22:33:28.205Z,89.30
2023-03-16T22:35:58.364Z,89.30
2023-03-16T22:38:25.491Z,89.30
2023-03-16T22:40:52.545Z,89.30
2023-03-16T22:43:21.922Z,89.20
2023-03-16T22:45:48.810Z,89.20
2023-03-16T22:48:24.456Z,89.20
2023-03-16T22:50:52.444Z,89.20
2023-03-16T22:53:40.941Z,89.20
2023-03-16T22:56:11.952Z,89.30
2023-03-16T22:58:56.194Z,89.30
2023-03-16T23:01:34.230Z,89.50
2023-03-16T23:04:02.021Z,89.60
2023-03-16T23:06:31.546Z,89.70
2023-03-16T23:08:59.262Z,89.90
2023-03-16T23:11:28.650Z,89.90
2023-03-16T23:13:55.783Z,89.90
2023-03-16T23:16:29.162Z,89.70
2023-03-16T23:18:56.720Z,89.70
2023-03-16T23:21:25.637Z,89.80
2023-03-16T23:24:03.101Z,89.60
2023-03-16T23:26:31.767Z,89.70
2023-03-16T23:28:58.633Z,89.60
2023-03-16T23:31:27.661Z,89.70
2023-03-16T23:33:54.470Z,89.70
2023-03-16T23:36:24.326Z,89.70
2023-03-16T23:38:51.752Z,89.60
2023-03-16T23:41:22.583Z,89.60
2023-03-16T23:43:50.968Z,89.60
2023-03-16T23:46:19.921Z,89.60
2023-03-16T23:48:49.077Z,89.50
2023-03-16T23:51:30.568Z,89.40
2023-03-16T23:53:57.969Z,89.50
2023-03-16T23:56:26.951Z,89.60
2023-03-16T23:58:57.795Z,89.40
